sensor_id;sensor_type;location;lat;lon;timestamp;temperature;humidity
4985;DHT22;2509;49.902;8.600;2023-05-28T00:02:28;15.90;99.90
4985;DHT22;2509;49.902;8.600;2023-05-28T00:05:30;16.00;99.90
4985;DHT22;2509;49.902;8.600;2023-05-28T00:08:32;16.00;99.90
4985;DHT22;2509;49.902;8.600;2023-05-28T00:11:35;16.10;99.90
4985;DHT22;2509;49.902;8.600;2023-05-28T00:14:37;16.10;99.90
4985;DHT22;2509;49.902;8.600;2023-05-28T00:17:39;16.00;99.90
4985;DHT22;2509;49.902;8.600;2023-05-28T00:20:41;15.90;99.90
4985;DHT22;2509;49.902;8.600;2023-05-28T00:23:43;15.80;99.90
4985;DHT22;2509;49.902;8.600;2023-05-28T00:26:47;15.70;99.90
4985;DHT22;2509;49.902;8.600;2023-05-28T00:29:49;15.50;99.90
4985;DHT22;2509;49.902;8.600;2023-05-28T00:32:51;15.50;99.90
4985;DHT22;2509;49.902;8.600;2023-05-28T00:35:52;15.30;99.90
4985;DHT22;2509;49.902;8.600;2023-05-28T00:38:56;15.20;99.90
4985;DHT22;2509;49.902;8.600;2023-05-28T00:42:01;15.20;99.90
4985;DHT22;2509;49.902;8.600;2023-05-28T00:45:04;15.20;99.90
4985;DHT22;2509;49.902;8.600;2023-05-28T00:48:06;15.20;99.90
4985;DHT22;2509;49.902;8.600;2023-05-28T00:51:07;15.10;99.90
4985;DHT22;2509;49.902;8.600;2023-05-28T00:54:09;15.10;99.90
4985;DHT22;2509;49.902;8.600;2023-05-28T00:57:13;15.10;99.90
4985;DHT22;2509;49.902;8.600;2023-05-28T01:00:15;15.20;99.90
4985;DHT22;2509;49.902;8.600;2023-05-28T01:03:17;15.10;99.90
4985;DHT22;2509;49.902;8.600;2023-05-28T01:06:20;15.10;99.90
4985;DHT22;2509;49.902;8.600;2023-05-28T01:09:23;15.00;99.90
4985;DHT22;2509;49.902;8.600;2023-05-28T01:12:26;15.10;99.90
4985;DHT22;2509;49.902;8.600;2023-05-28T01:15:28;15.20;99.90
4985;DHT22;2509;49.902;8.600;2023-05-28T01:18:30;15.20;99.90
4985;DHT22;2509;49.902;8.600;2023-05-28T01:21:32;15.20;99.90
4985;DHT22;2509;49.902;8.600;2023-05-28T01:24:37;15.10;99.90
4985;DHT22;2509;49.902;8.600;2023-05-28T01:27:40;15.10;99.90
4985;DHT22;2509;49.902;8.600;2023-05-28T01:30:42;15.00;99.90
4985;DHT22;2509;49.902;8.600;2023-05-28T01:33:44;14.90;99.90
4985;DHT22;2509;49.902;8.600;2023-05-28T01:36:49;14.90;99.90
4985;DHT22;2509;49.902;8.600;2023-05-28T01:39:54;14.80;99.90
4985;DHT22;2509;49.902;8.600;2023-05-28T01:42:58;14.90;99.90
4985;DHT22;2509;49.902;8.600;2023-05-28T01:46:00;14.90;99.90
4985;DHT22;2509;49.902;8.600;2023-05-28T01:49:02;14.80;99.90
4985;DHT22;2509;49.902;8.600;2023-05-28T01:52:04;14.80;99.90
4985;DHT22;2509;49.902;8.600;2023-05-28T01:55:08;14.80;99.90
4985;DHT22;2509;49.902;8.600;2023-05-28T01:58:11;14.90;99.90
4985;DHT22;2509;49.902;8.600;2023-05-28T02:01:16;14.90;99.90
4985;DHT22;2509;49.902;8.600;2023-05-28T02:04:19;14.90;99.90
4985;DHT22;2509;49.902;8.600;2023-05-28T02:07:21;14.90;99.90
4985;DHT22;2509;49.902;8.600;2023-05-28T02:10:24;14.90;99.90
4985;DHT22;2509;49.902;8.600;2023-05-28T02:13:26;14.90;99.90
4985;DHT22;2509;49.902;8.600;2023-05-28T02:16:28;15.00;99.90
4985;DHT22;2509;49.902;8.600;2023-05-28T02:19:30;15.10;99.90
4985;DHT22;2509;49.902;8.600;2023-05-28T02:22:33;15.10;99.90
4985;DHT22;2509;49.902;8.600;2023-05-28T02:25:36;15.10;99.90
4985;DHT22;2509;49.902;8.600;2023-05-28T02:28:38;15.00;99.90
4985;DHT22;2509;49.902;8.600;2023-05-28T02:31:40;15.00;99.90
4985;DHT22;2509;49.902;8.600;2023-05-28T02:34:42;15.00;99.90
4985;DHT22;2509;49.902;8.600;2023-05-28T02:37:44;15.00;99.90
4985;DHT22;2509;49.902;8.600;2023-05-28T02:40:47;14.90;99.90
4985;DHT22;2509;49.902;8.600;2023-05-28T02:43:49;14.90;99.90
4985;DHT22;2509;49.902;8.600;2023-05-28T02:46:50;14.80;99.90
4985;DHT22;2509;49.902;8.600;2023-05-28T02:49:52;14.70;99.90
4985;DHT22;2509;49.902;8.600;2023-05-28T02:52:54;14.70;99.90
4985;DHT22;2509;49.902;8.600;2023-05-28T02:55:57;14.70;99.90
4985;DHT22;2509;49.902;8.600;2023-05-28T02:58:59;14.60;99.90
4985;DHT22;2509;49.902;8.600;2023-05-28T03:02:01;14.50;99.90
4985;DHT22;2509;49.902;8.600;2023-05-28T03:05:03;14.50;99.90
4985;DHT22;2509;49.902;8.600;2023-05-28T03:08:05;14.40;99.90
4985;DHT22;2509;49.902;8.600;2023-05-28T03:11:08;14.30;99.90
4985;DHT22;2509;49.902;8.600;2023-05-28T03:14:10;14.30;99.90
4985;DHT22;2509;49.902;8.600;2023-05-28T03:17:12;14.30;99.90
4985;DHT22;2509;49.902;8.600;2023-05-28T03:20:13;14.20;99.90
4985;DHT22;2509;49.902;8.600;2023-05-28T03:23:15;14.20;99.90
4985;DHT22;2509;49.902;8.600;2023-05-28T03:26:18;14.10;99.90
4985;DHT22;2509;49.902;8.600;2023-05-28T03:29:20;14.10;99.90
4985;DHT22;2509;49.902;8.600;2023-05-28T03:32:22;14.00;99.90
4985;DHT22;2509;49.902;8.600;2023-05-28T03:35:23;14.00;99.90
4985;DHT22;2509;49.902;8.600;2023-05-28T03:38:25;14.00;99.90
4985;DHT22;2509;49.902;8.600;2023-05-28T03:41:28;14.00;99.90
4985;DHT22;2509;49.902;8.600;2023-05-28T03:44:30;13.90;99.90
4985;DHT22;2509;49.902;8.600;2023-05-28T03:47:32;13.90;99.90
4985;DHT22;2509;49.902;8.600;2023-05-28T03:50:34;13.80;99.90
4985;DHT22;2509;49.902;8.600;2023-05-28T03:53:36;13.80;99.90
4985;DHT22;2509;49.902;8.600;2023-05-28T03:56:40;13.80;99.90
4985;DHT22;2509;49.902;8.600;2023-05-28T03:59:41;13.80;99.90
4985;DHT22;2509;49.902;8.600;2023-05-28T04:02:43;13.80;99.90
4985;DHT22;2509;49.902;8.600;2023-05-28T04:05:45;13.70;99.90
4985;DHT22;2509;49.902;8.600;2023-05-28T04:08:47;13.80;99.90
4985;DHT22;2509;49.902;8.600;2023-05-28T04:11:50;13.70;99.90
4985;DHT22;2509;49.902;8.600;2023-05-28T04:14:52;13.70;99.90
4985;DHT22;2509;49.902;8.600;2023-05-28T04:17:53;13.70;99.90
4985;DHT22;2509;49.902;8.600;2023-05-28T04:20:55;13.60;99.90
4985;DHT22;2509;49.902;8.600;2023-05-28T04:23:57;13.60;99.90
4985;DHT22;2509;49.902;8.600;2023-05-28T04:27:00;13.70;99.90
4985;DHT22;2509;49.902;8.600;2023-05-28T04:30:02;13.80;99.90
4985;DHT22;2509;49.902;8.600;2023-05-28T04:33:04;13.90;99.90
4985;DHT22;2509;49.902;8.600;2023-05-28T04:36:07;13.90;99.90
4985;DHT22;2509;49.902;8.600;2023-05-28T04:39:10;13.90;99.90
4985;DHT22;2509;49.902;8.600;2023-05-28T04:42:13;13.90;99.90
4985;DHT22;2509;49.902;8.600;2023-05-28T04:45:17;13.90;99.90
4985;DHT22;2509;49.902;8.600;2023-05-28T04:48:19;14.00;99.90
4985;DHT22;2509;49.902;8.600;2023-05-28T04:51:21;14.00;99.90
4985;DHT22;2509;49.902;8.600;2023-05-28T04:54:22;14.00;99.90
4985;DHT22;2509;49.902;8.600;2023-05-28T04:57:26;14.00;99.90
4985;DHT22;2509;49.902;8.600;2023-05-28T05:00:27;14.00;99.90
4985;DHT22;2509;49.902;8.600;2023-05-28T05:03:31;13.80;99.90
4985;DHT22;2509;49.902;8.600;2023-05-28T05:06:33;13.90;99.90
4985;DHT22;2509;49.902;8.600;2023-05-28T05:09:35;14.00;99.90
4985;DHT22;2509;49.902;8.600;2023-05-28T05:12:38;14.00;99.90
4985;DHT22;2509;49.902;8.600;2023-05-28T05:15:39;14.10;99.90
4985;DHT22;2509;49.902;8.600;2023-05-28T05:18:41;14.10;99.90
4985;DHT22;2509;49.902;8.600;2023-05-28T05:21:43;14.10;99.90
4985;DHT22;2509;49.902;8.600;2023-05-28T05:24:46;14.20;99.90
4985;DHT22;2509;49.902;8.600;2023-05-28T05:27:50;14.20;99.90
4985;DHT22;2509;49.902;8.600;2023-05-28T05:30:52;14.30;99.90
4985;DHT22;2509;49.902;8.600;2023-05-28T05:33:54;14.40;99.90
4985;DHT22;2509;49.902;8.600;2023-05-28T05:36:56;14.50;99.90
4985;DHT22;2509;49.902;8.600;2023-05-28T05:39:59;14.60;99.90
4985;DHT22;2509;49.902;8.600;2023-05-28T05:43:02;14.70;99.90
4985;DHT22;2509;49.902;8.600;2023-05-28T05:46:04;14.80;99.90
4985;DHT22;2509;49.902;8.600;2023-05-28T05:49:05;14.70;99.90
4985;DHT22;2509;49.902;8.600;2023-05-28T05:52:08;14.90;99.90
4985;DHT22;2509;49.902;8.600;2023-05-28T05:55:10;15.00;99.90
4985;DHT22;2509;49.902;8.600;2023-05-28T05:58:13;15.10;99.90
4985;DHT22;2509;49.902;8.600;2023-05-28T06:01:16;15.20;99.90
4985;DHT22;2509;49.902;8.600;2023-05-28T06:04:18;15.40;99.90
4985;DHT22;2509;49.902;8.600;2023-05-28T06:07:20;15.50;99.90
4985;DHT22;2509;49.902;8.600;2023-05-28T06:10:22;15.60;99.90
4985;DHT22;2509;49.902;8.600;2023-05-28T06:13:25;15.70;99.90
4985;DHT22;2509;49.902;8.600;2023-05-28T06:16:27;15.80;99.90
4985;DHT22;2509;49.902;8.600;2023-05-28T06:19:29;16.00;99.90
4985;DHT22;2509;49.902;8.600;2023-05-28T06:22:31;16.10;99.90
4985;DHT22;2509;49.902;8.600;2023-05-28T06:25:33;16.20;99.90
4985;DHT22;2509;49.902;8.600;2023-05-28T06:28:37;16.30;99.90
4985;DHT22;2509;49.902;8.600;2023-05-28T06:31:39;16.40;99.90
4985;DHT22;2509;49.902;8.600;2023-05-28T06:34:41;16.50;99.90
4985;DHT22;2509;49.902;8.600;2023-05-28T06:37:43;16.50;99.90
4985;DHT22;2509;49.902;8.600;2023-05-28T06:40:45;16.60;99.90
4985;DHT22;2509;49.902;8.600;2023-05-28T06:43:48;16.80;99.90
4985;DHT22;2509;49.902;8.600;2023-05-28T06:46:50;17.00;99.90
4985;DHT22;2509;49.902;8.600;2023-05-28T06:49:51;17.10;99.90
4985;DHT22;2509;49.902;8.600;2023-05-28T06:52:53;17.30;99.90
4985;DHT22;2509;49.902;8.600;2023-05-28T06:55:56;17.50;99.90
4985;DHT22;2509;49.902;8.600;2023-05-28T06:58:59;17.60;99.90
4985;DHT22;2509;49.902;8.600;2023-05-28T07:02:01;17.70;99.90
4985;DHT22;2509;49.902;8.600;2023-05-28T07:05:03;17.80;99.90
4985;DHT22;2509;49.902;8.600;2023-05-28T07:08:05;18.10;99.90
4985;DHT22;2509;49.902;8.600;2023-05-28T07:11:08;18.30;99.90
4985;DHT22;2509;49.902;8.600;2023-05-28T07:14:11;18.30;99.90
4985;DHT22;2509;49.902;8.600;2023-05-28T07:17:13;18.50;99.90
4985;DHT22;2509;49.902;8.600;2023-05-28T07:20:15;18.70;99.90
4985;DHT22;2509;49.902;8.600;2023-05-28T07:23:16;18.80;99.90
4985;DHT22;2509;49.902;8.600;2023-05-28T07:26:18;18.90;99.90
4985;DHT22;2509;49.902;8.600;2023-05-28T07:29:22;19.00;99.90
4985;DHT22;2509;49.902;8.600;2023-05-28T07:32:23;19.20;99.90
4985;DHT22;2509;49.902;8.600;2023-05-28T07:35:25;19.30;99.90
4985;DHT22;2509;49.902;8.600;2023-05-28T07:38:27;19.40;99.90
4985;DHT22;2509;49.902;8.600;2023-05-28T07:41:29;19.60;99.50
4985;DHT22;2509;49.902;8.600;2023-05-28T07:44:32;19.70;98.70
4985;DHT22;2509;49.902;8.600;2023-05-28T07:47:33;19.80;98.50
4985;DHT22;2509;49.902;8.600;2023-05-28T07:50:35;19.90;98.50
4985;DHT22;2509;49.902;8.600;2023-05-28T07:53:37;20.00;99.50
4985;DHT22;2509;49.902;8.600;2023-05-28T07:56:39;20.20;99.20
4985;DHT22;2509;49.902;8.600;2023-05-28T07:59:43;20.40;98.60
4985;DHT22;2509;49.902;8.600;2023-05-28T08:02:45;20.60;99.00
4985;DHT22;2509;49.902;8.600;2023-05-28T08:05:47;20.70;98.30
4985;DHT22;2509;49.902;8.600;2023-05-28T08:08:48;20.80;96.80
4985;DHT22;2509;49.902;8.600;2023-05-28T08:11:50;20.90;97.10
4985;DHT22;2509;49.902;8.600;2023-05-28T08:14:53;21.00;98.00
4985;DHT22;2509;49.902;8.600;2023-05-28T08:17:55;21.10;96.00
4985;DHT22;2509;49.902;8.600;2023-05-28T08:20:57;21.20;96.50
4985;DHT22;2509;49.902;8.600;2023-05-28T08:23:58;21.40;96.80
4985;DHT22;2509;49.902;8.600;2023-05-28T08:27:01;21.50;95.90
4985;DHT22;2509;49.902;8.600;2023-05-28T08:30:05;21.60;96.60
4985;DHT22;2509;49.902;8.600;2023-05-28T08:33:08;21.80;97.00
4985;DHT22;2509;49.902;8.600;2023-05-28T08:36:10;21.90;96.20
4985;DHT22;2509;49.902;8.600;2023-05-28T08:39:12;22.00;96.40
4985;DHT22;2509;49.902;8.600;2023-05-28T08:42:14;22.10;96.70
4985;DHT22;2509;49.902;8.600;2023-05-28T08:45:17;22.20;96.50
4985;DHT22;2509;49.902;8.600;2023-05-28T08:48:20;22.30;95.90
4985;DHT22;2509;49.902;8.600;2023-05-28T08:51:24;22.40;94.80
4985;DHT22;2509;49.902;8.600;2023-05-28T08:54:27;22.50;95.50
4985;DHT22;2509;49.902;8.600;2023-05-28T08:57:29;22.90;93.20
4985;DHT22;2509;49.902;8.600;2023-05-28T09:00:33;23.00;92.90
4985;DHT22;2509;49.902;8.600;2023-05-28T09:03:37;23.10;91.70
4985;DHT22;2509;49.902;8.600;2023-05-28T09:06:39;23.10;92.50
4985;DHT22;2509;49.902;8.600;2023-05-28T09:09:41;23.40;95.00
4985;DHT22;2509;49.902;8.600;2023-05-28T09:12:57;23.70;89.70
4985;DHT22;2509;49.902;8.600;2023-05-28T09:16:00;23.90;90.10
4985;DHT22;2509;49.902;8.600;2023-05-28T09:19:04;23.90;90.60
4985;DHT22;2509;49.902;8.600;2023-05-28T09:22:05;24.10;88.50
4985;DHT22;2509;49.902;8.600;2023-05-28T09:25:08;24.20;91.20
4985;DHT22;2509;49.902;8.600;2023-05-28T09:28:12;24.30;91.50
4985;DHT22;2509;49.902;8.600;2023-05-28T09:31:15;24.30;88.60
4985;DHT22;2509;49.902;8.600;2023-05-28T09:34:18;24.50;89.10
4985;DHT22;2509;49.902;8.600;2023-05-28T09:37:20;24.60;87.40
4985;DHT22;2509;49.902;8.600;2023-05-28T09:40:26;24.80;87.30
4985;DHT22;2509;49.902;8.600;2023-05-28T09:43:28;25.00;87.40
4985;DHT22;2509;49.902;8.600;2023-05-28T09:46:33;25.20;88.90
4985;DHT22;2509;49.902;8.600;2023-05-28T09:49:35;25.40;88.90
4985;DHT22;2509;49.902;8.600;2023-05-28T09:52:37;25.60;86.90
4985;DHT22;2509;49.902;8.600;2023-05-28T09:55:40;25.70;85.50
4985;DHT22;2509;49.902;8.600;2023-05-28T09:58:45;25.80;85.80
4985;DHT22;2509;49.902;8.600;2023-05-28T10:01:56;26.00;85.40
4985;DHT22;2509;49.902;8.600;2023-05-28T10:05:02;26.10;85.80
4985;DHT22;2509;49.902;8.600;2023-05-28T10:08:11;26.20;83.20
4985;DHT22;2509;49.902;8.600;2023-05-28T10:11:17;26.20;83.20
4985;DHT22;2509;49.902;8.600;2023-05-28T10:14:21;26.20;85.10
4985;DHT22;2509;49.902;8.600;2023-05-28T10:17:25;26.40;83.20
4985;DHT22;2509;49.902;8.600;2023-05-28T10:20:27;26.40;83.80
4985;DHT22;2509;49.902;8.600;2023-05-28T10:23:29;26.50;83.00
4985;DHT22;2509;49.902;8.600;2023-05-28T10:26:31;26.50;83.00
4985;DHT22;2509;49.902;8.600;2023-05-28T10:29:38;26.60;81.90
4985;DHT22;2509;49.902;8.600;2023-05-28T10:32:41;26.70;82.30
4985;DHT22;2509;49.902;8.600;2023-05-28T10:36:01;26.90;81.30
4985;DHT22;2509;49.902;8.600;2023-05-28T10:39:03;26.90;81.90
4985;DHT22;2509;49.902;8.600;2023-05-28T10:42:06;26.90;81.20
4985;DHT22;2509;49.902;8.600;2023-05-28T10:45:10;26.90;79.10
4985;DHT22;2509;49.902;8.600;2023-05-28T10:48:15;27.20;77.60
4985;DHT22;2509;49.902;8.600;2023-05-28T10:51:17;27.20;78.50
4985;DHT22;2509;49.902;8.600;2023-05-28T10:54:22;27.20;79.70
4985;DHT22;2509;49.902;8.600;2023-05-28T10:57:25;27.40;79.30
4985;DHT22;2509;49.902;8.600;2023-05-28T11:00:40;27.60;78.60
4985;DHT22;2509;49.902;8.600;2023-05-28T11:03:45;27.70;78.10
4985;DHT22;2509;49.902;8.600;2023-05-28T11:06:47;27.80;77.30
4985;DHT22;2509;49.902;8.600;2023-05-28T11:09:49;27.90;76.50
4985;DHT22;2509;49.902;8.600;2023-05-28T11:12:52;28.20;76.10
4985;DHT22;2509;49.902;8.600;2023-05-28T11:15:54;28.50;74.40
4985;DHT22;2509;49.902;8.600;2023-05-28T11:19:02;28.80;73.30
4985;DHT22;2509;49.902;8.600;2023-05-28T11:22:04;28.90;74.00
4985;DHT22;2509;49.902;8.600;2023-05-28T11:25:07;29.40;74.10
4985;DHT22;2509;49.902;8.600;2023-05-28T11:28:10;29.50;72.70
4985;DHT22;2509;49.902;8.600;2023-05-28T11:31:12;29.70;73.10
4985;DHT22;2509;49.902;8.600;2023-05-28T11:34:19;30.00;72.10
4985;DHT22;2509;49.902;8.600;2023-05-28T11:37:25;30.50;71.50
4985;DHT22;2509;49.902;8.600;2023-05-28T11:40:33;31.30;72.00
4985;DHT22;2509;49.902;8.600;2023-05-28T11:43:35;32.10;70.00
4985;DHT22;2509;49.902;8.600;2023-05-28T11:46:36;31.90;68.50
4985;DHT22;2509;49.902;8.600;2023-05-28T11:49:40;31.80;69.80
4985;DHT22;2509;49.902;8.600;2023-05-28T11:52:42;32.50;67.90
4985;DHT22;2509;49.902;8.600;2023-05-28T11:55:45;32.50;66.90
4985;DHT22;2509;49.902;8.600;2023-05-28T11:58:47;32.30;67.10
4985;DHT22;2509;49.902;8.600;2023-05-28T12:01:48;32.70;66.30
4985;DHT22;2509;49.902;8.600;2023-05-28T12:04:55;32.80;65.70
4985;DHT22;2509;49.902;8.600;2023-05-28T12:07:57;32.70;66.00
4985;DHT22;2509;49.902;8.600;2023-05-28T12:11:00;33.20;66.70
4985;DHT22;2509;49.902;8.600;2023-05-28T12:14:10;33.10;65.70
4985;DHT22;2509;49.902;8.600;2023-05-28T12:17:12;33.90;64.20
4985;DHT22;2509;49.902;8.600;2023-05-28T12:20:32;34.10;61.50
4985;DHT22;2509;49.902;8.600;2023-05-28T12:23:33;34.50;63.00
4985;DHT22;2509;49.902;8.600;2023-05-28T12:26:35;33.70;63.00
4985;DHT22;2509;49.902;8.600;2023-05-28T12:29:37;33.50;63.10
4985;DHT22;2509;49.902;8.600;2023-05-28T12:32:39;34.40;63.00
4985;DHT22;2509;49.902;8.600;2023-05-28T12:35:42;34.70;61.40
4985;DHT22;2509;49.902;8.600;2023-05-28T12:38:44;34.50;62.00
4985;DHT22;2509;49.902;8.600;2023-05-28T12:41:45;34.20;62.40
4985;DHT22;2509;49.902;8.600;2023-05-28T12:44:48;33.90;62.30
4985;DHT22;2509;49.902;8.600;2023-05-28T12:47:50;34.00;61.20
4985;DHT22;2509;49.902;8.600;2023-05-28T12:50:53;33.90;62.90
4985;DHT22;2509;49.902;8.600;2023-05-28T12:53:55;35.30;62.80
4985;DHT22;2509;49.902;8.600;2023-05-28T12:56:56;35.80;61.20
4985;DHT22;2509;49.902;8.600;2023-05-28T12:59:58;36.20;60.80
4985;DHT22;2509;49.902;8.600;2023-05-28T13:03:00;36.00;60.70
4985;DHT22;2509;49.902;8.600;2023-05-28T13:06:05;35.20;60.70
4985;DHT22;2509;49.902;8.600;2023-05-28T13:09:07;35.50;61.90
4985;DHT22;2509;49.902;8.600;2023-05-28T13:12:09;36.10;61.60
4985;DHT22;2509;49.902;8.600;2023-05-28T13:15:11;37.50;58.20
4985;DHT22;2509;49.902;8.600;2023-05-28T13:18:13;38.20;57.60
4985;DHT22;2509;49.902;8.600;2023-05-28T13:21:16;37.10;58.20
4985;DHT22;2509;49.902;8.600;2023-05-28T13:24:18;36.10;60.70
4985;DHT22;2509;49.902;8.600;2023-05-28T13:27:19;36.00;59.60
4985;DHT22;2509;49.902;8.600;2023-05-28T13:30:21;36.00;60.40
4985;DHT22;2509;49.902;8.600;2023-05-28T13:33:23;36.40;60.30
4985;DHT22;2509;49.902;8.600;2023-05-28T13:36:26;37.20;61.00
4985;DHT22;2509;49.902;8.600;2023-05-28T13:39:29;38.10;59.10
4985;DHT22;2509;49.902;8.600;2023-05-28T13:42:31;38.00;58.80
4985;DHT22;2509;49.902;8.600;2023-05-28T13:45:33;37.70;59.00
4985;DHT22;2509;49.902;8.600;2023-05-28T13:48:35;37.90;58.40
4985;DHT22;2509;49.902;8.600;2023-05-28T13:51:38;38.30;57.20
4985;DHT22;2509;49.902;8.600;2023-05-28T13:54:42;37.20;58.60
4985;DHT22;2509;49.902;8.600;2023-05-28T13:57:44;36.50;59.90
4985;DHT22;2509;49.902;8.600;2023-05-28T14:00:45;35.30;61.00
4985;DHT22;2509;49.902;8.600;2023-05-28T14:03:47;35.60;60.60
4985;DHT22;2509;49.902;8.600;2023-05-28T14:06:50;36.50;60.10
4985;DHT22;2509;49.902;8.600;2023-05-28T14:09:52;37.20;60.20
4985;DHT22;2509;49.902;8.600;2023-05-28T14:12:54;38.00;59.70
4985;DHT22;2509;49.902;8.600;2023-05-28T14:15:55;37.60;58.60
4985;DHT22;2509;49.902;8.600;2023-05-28T14:18:57;37.00;59.40
4985;DHT22;2509;49.902;8.600;2023-05-28T14:22:00;38.10;58.60
4985;DHT22;2509;49.902;8.600;2023-05-28T14:25:02;38.00;58.30
4985;DHT22;2509;49.902;8.600;2023-05-28T14:28:04;38.10;58.50
4985;DHT22;2509;49.902;8.600;2023-05-28T14:31:06;37.00;59.70
4985;DHT22;2509;49.902;8.600;2023-05-28T14:34:07;36.20;60.80
4985;DHT22;2509;49.902;8.600;2023-05-28T14:37:11;37.00;60.80
4985;DHT22;2509;49.902;8.600;2023-05-28T14:40:12;37.20;58.30
4985;DHT22;2509;49.902;8.600;2023-05-28T14:43:14;36.40;60.80
4985;DHT22;2509;49.902;8.600;2023-05-28T14:46:16;36.00;60.90
4985;DHT22;2509;49.902;8.600;2023-05-28T14:49:17;36.40;61.30
4985;DHT22;2509;49.902;8.600;2023-05-28T14:52:25;36.40;60.10
4985;DHT22;2509;49.902;8.600;2023-05-28T14:55:27;35.50;61.00
4985;DHT22;2509;49.902;8.600;2023-05-28T14:58:29;35.00;61.50
4985;DHT22;2509;49.902;8.600;2023-05-28T15:01:31;35.50;60.70
4985;DHT22;2509;49.902;8.600;2023-05-28T15:04:32;36.60;60.30
4985;DHT22;2509;49.902;8.600;2023-05-28T15:07:36;37.60;58.50
4985;DHT22;2509;49.902;8.600;2023-05-28T15:10:37;37.40;58.10
4985;DHT22;2509;49.902;8.600;2023-05-28T15:13:39;36.70;59.30
4985;DHT22;2509;49.902;8.600;2023-05-28T15:16:41;36.40;59.60
4985;DHT22;2509;49.902;8.600;2023-05-28T15:19:42;35.60;60.40
4985;DHT22;2509;49.902;8.600;2023-05-28T15:22:46;35.30;61.80
4985;DHT22;2509;49.902;8.600;2023-05-28T15:25:47;35.50;59.90
4985;DHT22;2509;49.902;8.600;2023-05-28T15:28:49;35.00;61.40
4985;DHT22;2509;49.902;8.600;2023-05-28T15:31:51;34.40;62.30
4985;DHT22;2509;49.902;8.600;2023-05-28T15:34:54;34.30;62.90
4985;DHT22;2509;49.902;8.600;2023-05-28T15:37:57;34.80;62.30
4985;DHT22;2509;49.902;8.600;2023-05-28T15:40:59;35.00;61.60
4985;DHT22;2509;49.902;8.600;2023-05-28T15:44:01;35.50;61.50
4985;DHT22;2509;49.902;8.600;2023-05-28T15:47:03;35.40;61.00
4985;DHT22;2509;49.902;8.600;2023-05-28T15:50:06;35.30;61.30
4985;DHT22;2509;49.902;8.600;2023-05-28T15:53:09;34.40;62.70
4985;DHT22;2509;49.902;8.600;2023-05-28T15:56:11;33.80;62.60
4985;DHT22;2509;49.902;8.600;2023-05-28T15:59:13;32.80;64.70
4985;DHT22;2509;49.902;8.600;2023-05-28T16:02:18;32.30;65.10
4985;DHT22;2509;49.902;8.600;2023-05-28T16:05:22;31.10;66.00
4985;DHT22;2509;49.902;8.600;2023-05-28T16:08:25;30.70;67.50
4985;DHT22;2509;49.902;8.600;2023-05-28T16:11:28;31.00;67.10
4985;DHT22;2509;49.902;8.600;2023-05-28T16:14:33;31.40;66.70
4985;DHT22;2509;49.902;8.600;2023-05-28T16:17:36;30.90;68.30
4985;DHT22;2509;49.902;8.600;2023-05-28T16:20:39;30.50;68.80
4985;DHT22;2509;49.902;8.600;2023-05-28T16:23:43;30.10;70.00
4985;DHT22;2509;49.902;8.600;2023-05-28T16:26:48;29.70;70.70
4985;DHT22;2509;49.902;8.600;2023-05-28T16:29:51;29.60;70.60
4985;DHT22;2509;49.902;8.600;2023-05-28T16:32:53;29.50;72.10
4985;DHT22;2509;49.902;8.600;2023-05-28T16:35:58;29.50;70.90
4985;DHT22;2509;49.902;8.600;2023-05-28T16:39:02;29.30;71.70
4985;DHT22;2509;49.902;8.600;2023-05-28T16:42:06;29.20;73.20
4985;DHT22;2509;49.902;8.600;2023-05-28T16:45:09;29.20;73.00
4985;DHT22;2509;49.902;8.600;2023-05-28T16:48:11;28.90;73.00
4985;DHT22;2509;49.902;8.600;2023-05-28T16:51:13;28.60;73.70
4985;DHT22;2509;49.902;8.600;2023-05-28T16:54:18;28.50;76.10
4985;DHT22;2509;49.902;8.600;2023-05-28T16:57:20;26.90;99.90
4985;DHT22;2509;49.902;8.600;2023-05-28T17:00:21;25.60;92.80
4985;DHT22;2509;49.902;8.600;2023-05-28T17:03:23;25.30;98.80
4985;DHT22;2509;49.902;8.600;2023-05-28T17:09:29;25.20;91.00
4985;DHT22;2509;49.902;8.600;2023-05-28T17:12:31;25.20;94.00
4985;DHT22;2509;49.902;8.600;2023-05-28T17:15:33;25.10;95.30
4985;DHT22;2509;49.902;8.600;2023-05-28T17:18:34;25.10;87.60
4985;DHT22;2509;49.902;8.600;2023-05-28T17:21:36;25.00;94.40
4985;DHT22;2509;49.902;8.600;2023-05-28T17:24:39;24.90;92.20
4985;DHT22;2509;49.902;8.600;2023-05-28T17:27:41;24.90;86.70
4985;DHT22;2509;49.902;8.600;2023-05-28T17:30:43;24.90;85.50
4985;DHT22;2509;49.902;8.600;2023-05-28T17:33:44;24.80;85.90
4985;DHT22;2509;49.902;8.600;2023-05-28T17:36:46;24.80;88.10
4985;DHT22;2509;49.902;8.600;2023-05-28T17:39:49;24.80;86.50
4985;DHT22;2509;49.902;8.600;2023-05-28T17:42:51;24.80;87.20
4985;DHT22;2509;49.902;8.600;2023-05-28T17:45:52;24.80;87.00
4985;DHT22;2509;49.902;8.600;2023-05-28T17:48:56;24.70;88.80
4985;DHT22;2509;49.902;8.600;2023-05-28T17:51:58;24.60;88.90
4985;DHT22;2509;49.902;8.600;2023-05-28T17:55:01;24.60;91.00
4985;DHT22;2509;49.902;8.600;2023-05-28T17:58:03;24.60;92.20
4985;DHT22;2509;49.902;8.600;2023-05-28T18:01:05;24.60;92.80
4985;DHT22;2509;49.902;8.600;2023-05-28T18:04:06;24.40;87.30
4985;DHT22;2509;49.902;8.600;2023-05-28T18:07:08;24.40;87.70
4985;DHT22;2509;49.902;8.600;2023-05-28T18:10:11;24.30;86.80
4985;DHT22;2509;49.902;8.600;2023-05-28T18:13:13;24.20;86.50
4985;DHT22;2509;49.902;8.600;2023-05-28T18:16:14;24.20;88.30
4985;DHT22;2509;49.902;8.600;2023-05-28T18:19:17;24.10;88.40
4985;DHT22;2509;49.902;8.600;2023-05-28T18:22:19;24.00;86.40
4985;DHT22;2509;49.902;8.600;2023-05-28T18:25:23;24.00;87.40
4985;DHT22;2509;49.902;8.600;2023-05-28T18:28:25;24.00;88.10
4985;DHT22;2509;49.902;8.600;2023-05-28T18:31:26;24.00;88.00
4985;DHT22;2509;49.902;8.600;2023-05-28T18:34:28;23.90;89.90
4985;DHT22;2509;49.902;8.600;2023-05-28T18:37:30;23.90;88.90
4985;DHT22;2509;49.902;8.600;2023-05-28T18:40:33;23.80;89.70
4985;DHT22;2509;49.902;8.600;2023-05-28T18:43:35;23.80;87.50
4985;DHT22;2509;49.902;8.600;2023-05-28T18:46:37;23.60;85.90
4985;DHT22;2509;49.902;8.600;2023-05-28T18:49:38;23.50;85.30
4985;DHT22;2509;49.902;8.600;2023-05-28T18:52:41;23.40;85.70
4985;DHT22;2509;49.902;8.600;2023-05-28T18:55:45;23.30;84.60
4985;DHT22;2509;49.902;8.600;2023-05-28T18:58:46;23.20;84.80
4985;DHT22;2509;49.902;8.600;2023-05-28T19:01:48;23.20;85.30
4985;DHT22;2509;49.902;8.600;2023-05-28T19:04:50;23.10;86.30
4985;DHT22;2509;49.902;8.600;2023-05-28T19:07:52;23.00;85.10
4985;DHT22;2509;49.902;8.600;2023-05-28T19:10:55;23.00;84.80
4985;DHT22;2509;49.902;8.600;2023-05-28T19:13:57;22.90;84.60
4985;DHT22;2509;49.902;8.600;2023-05-28T19:16:58;22.90;84.60
4985;DHT22;2509;49.902;8.600;2023-05-28T19:20:00;22.80;85.10
4985;DHT22;2509;49.902;8.600;2023-05-28T19:23:02;22.70;84.90
4985;DHT22;2509;49.902;8.600;2023-05-28T19:26:05;22.60;85.30
4985;DHT22;2509;49.902;8.600;2023-05-28T19:29:07;22.50;85.20
4985;DHT22;2509;49.902;8.600;2023-05-28T19:32:09;22.40;85.90
4985;DHT22;2509;49.902;8.600;2023-05-28T19:35:11;22.40;86.40
4985;DHT22;2509;49.902;8.600;2023-05-28T19:38:12;22.30;85.80
4985;DHT22;2509;49.902;8.600;2023-05-28T19:41:16;22.20;85.90
4985;DHT22;2509;49.902;8.600;2023-05-28T19:44:17;22.00;85.90
4985;DHT22;2509;49.902;8.600;2023-05-28T19:47:19;22.00;85.60
4985;DHT22;2509;49.902;8.600;2023-05-28T19:50:21;21.90;85.00
4985;DHT22;2509;49.902;8.600;2023-05-28T19:53:23;21.80;85.20
4985;DHT22;2509;49.902;8.600;2023-05-28T19:56:26;21.70;85.10